Time;durP1;ratioP1;P1;durP2;ratioP2;P2;SDS_P1;SDS_P2;PMS_P1;PMS_P2;Temp;Humidity;BMP_temperature;BMP_pressure;BME280_temperature;BME280_humidity;BME280_pressure;Samples;Min_cycle;Max_cycle;Signal;HPM_P1;HPM_P2
2022/07/23 20:03:26;;;;;;;12.50;11.20;;;22.50;99.90;;;;;;2411475;53;50618;31
2022/07/23 20:06:01;;;;;;;11.50;10.30;;;22.50;99.90;;;;;;2584987;54;20049;31
2022/07/23 20:08:36;;;;;;;10.45;9.52;;;22.40;99.90;;;;;;2585337;54;20269;31
2022/07/23 20:11:10;;;;;;;11.45;10.40;;;22.40;99.90;;;;;;2594963;39;20318;31
2022/07/23 20:13:46;;;;;;;11.55;10.55;;;22.30;99.90;;;;;;2584156;54;21001;31
2022/07/23 20:16:19;;;;;;;10.88;9.88;;;22.20;99.90;;;;;;2584406;54;20053;31
2022/07/23 20:18:57;;;;;;;11.30;10.02;;;22.20;99.90;;;;;;2586573;54;20038;31
2022/07/23 20:21:30;;;;;;;11.95;10.70;;;22.20;99.90;;;;;;2586242;54;20037;31
2022/07/23 20:24:05;;;;;;;10.10;9.10;;;22.20;99.90;;;;;;2586471;54;20037;31
2022/07/23 20:26:45;;;;;;;9.63;8.35;;;22.10;99.90;;;;;;2604889;46;20242;31
2022/07/23 20:29:20;;;;;;;9.45;8.55;;;22.00;99.90;;;;;;2586775;54;20030;31
2022/07/23 20:31:56;;;;;;;11.15;9.95;;;22.00;99.90;;;;;;2586429;54;20887;31
2022/07/23 20:34:31;;;;;;;11.60;10.40;;;21.90;99.90;;;;;;2586670;54;20901;31
2022/07/23 20:37:04;;;;;;;10.75;9.70;;;21.80;99.90;;;;;;2586691;54;21205;31
2022/07/23 20:39:40;;;;;;;8.97;8.10;;;21.80;99.90;;;;;;2604999;46;20600;31
2022/07/23 20:42:15;;;;;;;15.30;10.95;;;21.80;99.90;;;;;;2586621;54;20026;31
2022/07/23 20:44:50;;;;;;;12.35;11.15;;;21.70;99.90;;;;;;2586741;54;20268;31
2022/07/23 20:47:25;;;;;;;10.52;9.45;;;21.70;99.90;;;;;;2586534;54;20120;31
2022/07/23 20:50:09;;;;;;;11.85;10.65;;;21.60;99.90;;;;;;2586681;54;20896;31
2022/07/23 20:52:50;;;;;;;11.70;10.50;;;21.60;99.90;;;;;;2586358;54;20841;31
2022/07/23 20:55:34;;;;;;;13.93;12.10;;;21.50;99.90;;;;;;2586367;54;20148;31
2022/07/23 20:58:11;;;;;;;13.20;11.05;;;21.50;99.90;;;;;;2586388;54;20030;31
2022/07/23 21:00:46;;;;;;;10.40;9.40;;;21.40;99.90;;;;;;2586518;54;20030;31
2022/07/23 21:03:22;;;;;;;11.77;9.93;;;21.40;99.90;;;;;;2586544;54;20030;31
2022/07/23 21:06:03;;;;;;;11.27;10.00;;;21.40;99.90;;;;;;2586315;54;20033;31
2022/07/23 21:08:39;;;;;;;9.95;9.15;;;21.40;99.90;;;;;;2586493;54;20979;31
2022/07/23 21:11:11;;;;;;;11.90;10.80;;;21.30;99.90;;;;;;2586154;54;20805;31
2022/07/23 21:13:46;;;;;;;11.95;10.68;;;21.30;99.90;;;;;;2605023;46;20046;31
2022/07/23 21:16:21;;;;;;;11.60;10.20;;;21.30;99.90;;;;;;2586566;54;20756;31
2022/07/23 21:18:57;;;;;;;11.50;10.40;;;21.20;99.90;;;;;;2586492;54;20814;31
2022/07/23 21:21:33;;;;;;;11.20;10.18;;;21.20;99.90;;;;;;2586587;54;20927;31
2022/07/23 21:24:05;;;;;;;;;;;21.10;99.90;;;;;;2586634;54;20889;31
2022/07/23 21:26:41;;;;;;;10.60;9.55;;;21.10;99.90;;;;;;2605091;46;19941;31
2022/07/23 21:29:16;;;;;;;13.25;11.95;;;21.00;99.90;;;;;;2585839;54;20778;31
2022/07/23 21:31:54;;;;;;;13.80;11.80;;;21.00;99.90;;;;;;2746692;31;20579;31
2022/07/23 21:34:29;;;;;;;14.00;11.90;;;21.00;99.90;;;;;;2604770;46;20085;31
2022/07/23 21:37:07;;;;;;;14.20;12.20;;;20.90;99.90;;;;;;2586326;54;20728;31
2022/07/23 21:39:42;;;;;;;13.63;11.40;;;20.90;99.90;;;;;;2586426;54;20803;31
2022/07/23 21:42:16;;;;;;;11.50;10.50;;;20.80;99.90;;;;;;2599858;46;20934;31
2022/07/23 21:44:56;;;;;;;11.18;10.07;;;20.80;99.90;;;;;;2684154;39;20596;31
2022/07/23 21:47:30;;;;;;;10.90;9.88;;;20.80;99.90;;;;;;2586251;54;20030;31
2022/07/23 21:50:05;;;;;;;12.77;11.15;;;20.70;99.90;;;;;;2604608;46;20048;31
2022/07/23 21:52:43;;;;;;;10.60;9.68;;;20.70;99.90;;;;;;2605067;46;20761;31
2022/07/23 21:55:17;;;;;;;12.50;9.90;;;20.70;99.90;;;;;;2586074;54;20085;31
2022/07/23 21:57:51;;;;;;;10.85;9.70;;;20.60;99.90;;;;;;2586049;54;20050;31
2022/07/23 22:00:26;;;;;;;9.00;8.20;;;20.60;99.90;;;;;;2586050;54;20892;31
2022/07/23 22:03:01;;;;;;;10.50;9.57;;;20.60;99.90;;;;;;2586234;54;20842;31
2022/07/23 22:05:34;;;;;;;11.45;10.35;;;20.60;99.90;;;;;;2586192;54;20936;31
2022/07/23 22:08:10;;;;;;;11.90;10.70;;;20.60;99.90;;;;;;2601349;46;20735;31
2022/07/23 22:10:46;;;;;;;;;;;20.50;99.90;;;;;;2586509;54;20069;31
2022/07/23 22:13:20;;;;;;;13.60;10.93;;;20.40;99.90;;;;;;2604511;46;20397;31
2022/07/23 22:15:54;;;;;;;12.60;11.30;;;20.30;99.90;;;;;;2702727;39;20430;31
2022/07/23 22:18:27;;;;;;;15.10;10.90;;;20.20;99.90;;;;;;2586010;54;20042;31
2022/07/23 22:21:03;;;;;;;12.88;11.45;;;20.20;99.90;;;;;;2586155;54;21029;31
2022/07/23 22:24:00;;;;;;;14.52;11.93;;;20.10;99.90;;;;;;2585972;54;20465;31
2022/07/23 22:26:35;;;;;;;13.50;11.15;;;20.00;99.90;;;;;;2585979;54;20870;31
2022/07/23 22:29:08;;;;;;;13.73;11.65;;;19.90;99.90;;;;;;2586353;54;20969;31
2022/07/23 22:31:41;;;;;;;12.20;11.00;;;19.90;99.90;;;;;;2604489;46;20911;31
2022/07/23 22:34:15;;;;;;;12.68;11.38;;;19.80;99.90;;;;;;2585961;54;20050;31
2022/07/23 22:36:49;;;;;;;13.00;11.55;;;19.80;99.90;;;;;;2586200;54;20803;31
2022/07/23 22:39:26;;;;;;;15.90;12.50;;;19.70;99.90;;;;;;2604433;46;20058;31
2022/07/23 22:41:58;;;;;;;19.95;12.27;;;19.60;99.90;;;;;;2586338;54;20772;31
2022/07/23 22:44:32;;;;;;;13.30;12.02;;;19.70;99.90;;;;;;2604217;47;20033;31
2022/07/23 22:47:07;;;;;;;15.52;11.88;;;19.60;99.90;;;;;;2586055;54;20863;31
2022/07/23 22:49:42;;;;;;;11.80;10.70;;;19.60;99.90;;;;;;2585921;54;20544;31
2022/07/23 22:52:18;;;;;;;14.30;12.35;;;19.60;99.90;;;;;;2585897;54;20508;31
2022/07/23 22:54:57;;;;;;;12.77;11.48;;;19.50;99.90;;;;;;2585926;54;20112;31
2022/07/23 22:57:32;;;;;;;13.18;11.02;;;19.50;99.90;;;;;;2586204;54;21013;31
2022/07/23 23:00:06;;;;;;;12.85;11.55;;;19.40;99.90;;;;;;2586182;54;21238;31
2022/07/23 23:02:46;;;;;;;12.38;11.18;;;19.40;99.90;;;;;;2586544;54;20026;31
2022/07/23 23:05:21;;;;;;;12.43;11.15;;;19.40;99.90;;;;;;2586874;54;20890;31
2022/07/23 23:07:59;;;;;;;13.50;11.50;;;19.40;99.90;;;;;;2586777;54;20817;31
2022/07/23 23:10:35;;;;;;;10.40;9.35;;;19.30;99.90;;;;;;2587041;54;20097;31
2022/07/23 23:13:10;;;;;;;10.60;9.53;;;19.40;99.90;;;;;;2587005;54;20088;31
2022/07/23 23:15:47;;;;;;;9.63;8.73;;;19.30;99.90;;;;;;2586895;54;20031;31
2022/07/23 23:18:22;;;;;;;9.65;8.20;;;19.20;99.90;;;;;;2586626;54;20070;31
2022/07/23 23:21:00;;;;;;;11.47;10.27;;;19.20;99.90;;;;;;2586819;54;20517;31
2022/07/23 23:23:35;;;;;;;11.60;9.13;;;19.20;99.90;;;;;;2586868;54;20033;31
2022/07/23 23:26:13;;;;;;;13.57;11.10;;;19.20;99.90;;;;;;2586313;54;21583;31
2022/07/23 23:28:46;;;;;;;11.45;10.20;;;19.20;99.90;;;;;;2587044;54;20046;31
2022/07/23 23:31:22;;;;;;;13.90;11.55;;;19.10;99.90;;;;;;2605418;46;20950;31
2022/07/23 23:33:56;;;;;;;14.30;12.77;;;19.10;99.90;;;;;;2586940;54;20871;31
2022/07/23 23:36:31;;;;;;;10.25;9.25;;;19.00;99.90;;;;;;2604857;46;20465;31
2022/07/23 23:39:07;;;;;;;9.95;8.95;;;18.90;99.90;;;;;;2605176;46;20856;31
2022/07/23 23:41:43;;;;;;;9.90;8.90;;;18.90;99.90;;;;;;2684411;39;20455;31
2022/07/23 23:44:21;;;;;;;9.48;8.52;;;18.90;99.90;;;;;;2605282;46;20340;31
2022/07/23 23:46:53;;;;;;;9.60;7.70;;;18.90;99.90;;;;;;2586714;54;20129;31
2022/07/23 23:49:26;;;;;;;12.75;11.45;;;18.90;99.90;;;;;;2604985;46;20097;31
2022/07/23 23:51:59;;;;;;;9.05;8.20;;;18.90;99.90;;;;;;2589459;46;20932;31
2022/07/23 23:54:34;;;;;;;10.85;8.85;;;18.80;99.90;;;;;;2586686;54;20577;31
2022/07/23 23:57:12;;;;;;;9.05;8.25;;;18.80;99.90;;;;;;2586657;54;20780;31
2022/07/23 23:59:46;;;;;;;11.75;8.98;;;18.80;99.90;;;;;;2586439;54;20081;31
